Time;durP1;ratioP1;P1;durP2;ratioP2;P2;SDS_P1;SDS_P2;PMS_P1;PMS_P2;Temp;Humidity;BMP_temperature;BMP_pressure;BME280_temperature;BME280_humidity;BME280_pressure;Samples;Min_cycle;Max_cycle;Signal;HPM_P1;HPM_P2
2021/01/24 00:00:14;;;;;;;15.40;11.65;;;;;;;3.40;78.87;98825.78;1670309;85;26137;-78
2021/01/24 00:02:44;;;;;;;17.75;11.83;;;;;;;3.36;78.99;98834.30;1649854;83;26470;-78
2021/01/24 00:05:11;;;;;;;15.90;11.48;;;;;;;3.37;79.21;98836.75;1643847;83;26938;-78
2021/01/24 00:07:39;;;;;;;17.10;11.05;;;;;;;3.35;79.25;98829.50;1669502;83;25990;-79
2021/01/24 00:10:07;;;;;;;19.37;11.00;;;;;;;3.33;79.25;98833.33;1661768;85;26457;-78
2021/01/24 00:12:35;;;;;;;14.93;11.00;;;;;;;3.32;79.23;98827.20;1596308;85;26246;-78
2021/01/24 00:15:02;;;;;;;18.57;11.83;;;;;;;3.33;79.38;98833.33;1644789;85;25834;-78
2021/01/24 00:17:30;;;;;;;15.85;12.13;;;;;;;3.35;79.50;98848.52;1632431;85;27365;-78
2021/01/24 00:19:59;;;;;;;18.87;12.15;;;;;;;3.36;79.42;98841.71;1639138;85;26106;-78
2021/01/24 00:22:28;;;;;;;13.85;10.60;;;;;;;3.35;79.49;98840.09;1611352;85;25640;-79
2021/01/24 00:24:56;;;;;;;17.30;12.13;;;;;;;3.38;79.55;98850.81;1625966;85;25878;-79
2021/01/24 00:27:23;;;;;;;17.27;11.43;;;;;;;3.38;79.53;98850.28;1640948;84;25962;-79
2021/01/24 00:29:51;;;;;;;21.40;13.32;;;;;;;3.38;79.55;98852.13;1651285;84;27537;-78
2021/01/24 00:32:19;;;;;;;16.87;11.15;;;;;;;3.38;79.63;98854.78;1601910;85;25882;-78
2021/01/24 00:34:46;;;;;;;19.82;12.68;;;;;;;3.38;79.59;98847.64;1641126;85;25836;-79
2021/01/24 00:37:14;;;;;;;19.80;12.00;;;;;;;3.37;79.60;98847.83;1614934;86;25973;-79
2021/01/24 00:39:41;;;;;;;21.82;13.62;;;;;;;3.37;79.74;98846.52;1651453;85;25762;-79
2021/01/24 00:42:09;;;;;;;19.57;11.83;;;;;;;3.40;79.86;98852.77;1609900;85;28492;-78
2021/01/24 00:44:36;;;;;;;14.95;10.98;;;;;;;3.40;79.69;98856.74;1616789;85;25487;-78
2021/01/24 00:47:05;;;;;;;16.85;11.15;;;;;;;3.36;79.71;98848.33;1645893;84;25879;-78
2021/01/24 00:49:32;;;;;;;17.65;11.93;;;;;;;3.31;79.57;98853.37;1666566;84;25762;-78
2021/01/24 00:52:00;;;;;;;19.42;13.13;;;;;;;3.28;79.76;98840.98;1629883;85;25790;-79
2021/01/24 00:54:29;;;;;;;15.98;11.60;;;;;;;3.28;79.74;98839.66;1616823;86;27560;-78
2021/01/24 00:56:57;;;;;;;18.82;12.85;;;;;;;3.25;79.81;98842.69;1645252;84;25865;-78
2021/01/24 00:59:24;;;;;;;18.15;12.55;;;;;;;3.21;80.00;98846.71;1667225;85;25757;-79
2021/01/24 01:01:52;;;;;;;20.75;13.05;;;;;;;3.25;80.17;98851.95;1613236;85;26475;-78
2021/01/24 01:04:19;;;;;;;20.23;12.88;;;;;;;3.29;80.22;98843.97;1653241;84;26722;-79
2021/01/24 01:06:46;;;;;;;17.67;11.93;;;;;;;3.27;80.05;98842.01;1641571;86;27428;-78
2021/01/24 01:09:13;;;;;;;18.20;12.50;;;;;;;3.19;80.00;98842.11;1653691;83;25885;-78
2021/01/24 01:11:41;;;;;;;19.73;12.55;;;;;;;3.09;80.14;98826.00;1613125;86;25427;-79
2021/01/24 01:14:08;;;;;;;19.35;12.50;;;;;;;3.06;80.29;98839.57;1662535;83;25838;-78
2021/01/24 01:16:35;;;;;;;17.07;12.10;;;;;;;3.06;80.44;98838.75;1678077;83;26472;-78
2021/01/24 01:19:03;;;;;;;16.42;12.35;;;;;;;3.05;80.39;98828.69;1694864;83;27548;-78
2021/01/24 01:21:30;;;;;;;17.07;11.88;;;;;;;2.98;80.34;98826.94;1637578;85;26237;-78
2021/01/24 01:23:58;;;;;;;18.32;12.82;;;;;;;2.89;80.37;98818.77;1681612;82;25764;-78
2021/01/24 01:26:25;;;;;;;21.55;14.28;;;;;;;2.85;80.61;98814.84;1666873;85;25849;-78
2021/01/24 01:28:52;;;;;;;19.30;12.68;;;;;;;2.82;80.79;98816.55;1693453;82;25790;-78
2021/01/24 01:31:20;;;;;;;21.77;14.13;;;;;;;2.79;80.74;98816.40;1624098;82;28491;-78
2021/01/24 01:33:47;;;;;;;17.80;13.43;;;;;;;2.76;80.82;98817.27;1665039;85;25896;-78
2021/01/24 01:36:14;;;;;;;18.73;14.00;;;;;;;2.74;80.79;98808.67;1711667;82;25719;-78
2021/01/24 01:38:43;;;;;;;22.58;13.60;;;;;;;2.71;80.88;98809.05;1690802;83;26755;-78
2021/01/24 01:41:10;;;;;;;16.67;13.08;;;;;;;2.68;81.00;98815.52;1642339;83;25881;-78
2021/01/24 01:43:37;;;;;;;18.45;13.38;;;;;;;2.67;81.15;98809.92;1658278;83;27563;-78
2021/01/24 01:46:05;;;;;;;18.90;12.90;;;;;;;2.70;81.17;98806.89;1664932;83;25773;-78
2021/01/24 01:48:33;;;;;;;15.43;12.58;;;;;;;2.72;81.29;98807.53;1695658;83;25709;-78
2021/01/24 01:51:00;;;;;;;17.37;13.05;;;;;;;2.77;81.24;98810.47;1670641;83;26190;-78
2021/01/24 01:53:28;;;;;;;19.05;12.68;;;;;;;2.78;81.29;98805.48;1659781;83;25410;-78
2021/01/24 01:55:55;;;;;;;17.82;13.15;;;;;;;2.78;81.20;98806.81;1670628;83;27186;-78
2021/01/24 01:58:23;;;;;;;21.37;14.40;;;;;;;2.77;81.19;98796.42;1682824;83;26177;-78
2021/01/24 02:00:50;;;;;;;26.40;15.55;;;;;;;2.76;81.23;98792.95;1627425;83;25890;-78
2021/01/24 02:03:32;;;;;;;22.30;15.15;;;;;;;2.74;81.20;98797.59;1662286;82;26265;-78
2021/01/24 02:06:09;;;;;;;21.85;14.73;;;;;;;2.70;81.21;98787.08;1672996;84;25966;-78
2021/01/24 02:09:08;;;;;;;21.73;14.25;;;;;;;2.71;81.34;98779.48;1702811;82;27559;-78
2021/01/24 02:12:13;;;;;;;22.13;14.20;;;;;;;2.70;81.33;98777.82;1666023;83;25784;-78
2021/01/24 02:15:03;;;;;;;18.95;14.13;;;;;;;2.70;81.36;98775.67;1673263;84;25763;-78
2021/01/24 02:17:43;;;;;;;19.05;13.45;;;;;;;2.70;81.35;98768.56;1751738;79;26277;-79
2021/01/24 02:20:28;;;;;;;19.73;13.72;;;;;;;2.60;81.46;98772.48;1674984;82;26439;-78
2021/01/24 02:23:07;;;;;;;21.25;15.18;;;;;;;2.60;81.59;98770.66;1793821;78;25920;-78
2021/01/24 02:25:57;;;;;;;20.35;13.95;;;;;;;2.58;81.83;98771.34;1742579;79;25912;-78
2021/01/24 02:28:42;;;;;;;23.05;15.25;;;;;;;2.59;81.81;98774.81;1679211;83;29675;-78
2021/01/24 02:31:11;;;;;;;21.25;13.38;;;;;;;2.60;81.79;98764.55;1680641;83;26333;-78
2021/01/24 02:33:40;;;;;;;19.95;13.80;;;;;;;2.57;81.77;98775.47;1646357;83;26519;-78
2021/01/24 02:36:10;;;;;;;23.57;14.80;;;;;;;2.58;81.86;98767.88;1656092;83;25855;-78
2021/01/24 02:38:39;;;;;;;20.97;14.53;;;;;;;2.55;81.78;98761.13;1652065;85;25795;-78
2021/01/24 02:41:11;;;;;;;22.62;15.75;;;;;;;2.55;81.87;98761.13;1687248;83;27540;-78
2021/01/24 02:43:45;;;;;;;20.95;14.90;;;;;;;2.57;81.98;98756.47;1636642;85;26541;-78
2021/01/24 02:46:15;;;;;;;22.58;15.03;;;;;;;2.61;82.05;98753.79;1663430;83;25643;-78
2021/01/24 02:48:47;;;;;;;21.20;14.38;;;;;;;2.63;81.91;98752.31;1685389;83;25550;-78
2021/01/24 02:51:17;;;;;;;21.05;15.10;;;;;;;2.65;81.88;98749.78;1681776;83;26302;-78
2021/01/24 02:53:46;;;;;;;19.85;13.98;;;;;;;2.66;81.83;98744.83;1673043;83;27529;-78
2021/01/24 02:56:16;;;;;;;24.87;15.05;;;;;;;2.66;81.70;98754.57;1657818;83;25771;-78
2021/01/24 02:58:43;;;;;;;21.50;15.20;;;;;;;2.63;81.73;98753.63;1672529;85;25432;-78
2021/01/24 03:01:10;;;;;;;19.12;14.13;;;;;;;2.56;81.71;98757.98;1685370;83;26370;-78
2021/01/24 03:03:38;;;;;;;23.05;14.83;;;;;;;2.54;81.84;98759.50;1602325;85;26369;-78
2021/01/24 03:06:06;;;;;;;22.25;14.78;;;;;;;2.56;81.90;98748.73;1639431;83;27666;-78
2021/01/24 03:08:34;;;;;;;20.80;15.13;;;;;;;2.59;81.94;98739.94;1689047;83;25937;-78
2021/01/24 03:11:05;;;;;;;23.07;15.38;;;;;;;2.63;81.93;98746.50;1689241;83;25876;-78
2021/01/24 03:13:46;;;;;;;22.90;15.50;;;;;;;2.64;81.86;98730.14;1624867;83;25833;-78
2021/01/24 03:16:14;;;;;;;20.92;14.38;;;;;;;2.65;81.80;98722.02;1655873;83;25904;-78
2021/01/24 03:18:44;;;;;;;21.23;14.75;;;;;;;2.62;81.82;98729.50;1684745;83;28120;-78
2021/01/24 03:21:16;;;;;;;22.52;15.20;;;;;;;2.63;81.91;98727.20;1683614;83;25750;-78
2021/01/24 03:23:44;;;;;;;20.60;14.85;;;;;;;2.64;81.94;98728.82;1676179;84;26285;-78
2021/01/24 03:26:12;;;;;;;20.12;14.87;;;;;;;2.64;81.91;98727.00;1643751;84;25961;-78
2021/01/24 03:28:40;;;;;;;22.37;15.32;;;;;;;2.64;81.81;98720.89;1665246;83;25852;-78
2021/01/24 03:31:08;;;;;;;23.12;15.55;;;;;;;2.63;81.79;98712.13;1671080;83;28767;-78
2021/01/24 03:33:39;;;;;;;23.32;15.55;;;;;;;2.61;81.82;98711.50;1632400;84;25799;-78
2021/01/24 03:36:07;;;;;;;;;;;;;;;2.63;81.91;98714.78;1630290;85;25876;-78
2021/01/24 03:38:34;;;;;;;23.47;14.75;;;;;;;2.62;81.92;98718.94;1652360;84;25907;-78
2021/01/24 03:41:01;;;;;;;23.75;15.72;;;;;;;2.59;81.96;98712.18;1634580;85;25941;-78
2021/01/24 03:43:29;;;;;;;21.60;14.78;;;;;;;2.56;81.97;98722.31;1682672;83;28826;-78
2021/01/24 03:45:56;;;;;;;23.07;15.72;;;;;;;2.57;81.99;98716.83;1649363;84;25848;-79
2021/01/24 03:48:23;;;;;;;22.62;15.30;;;;;;;2.55;81.95;98716.69;1692017;83;25894;-78
2021/01/24 03:50:51;;;;;;;22.32;15.35;;;;;;;2.53;82.03;98730.09;1651132;83;25891;-78
2021/01/24 03:53:18;;;;;;;21.95;15.78;;;;;;;2.55;82.02;98727.26;1663730;83;26351;-78
2021/01/24 03:55:45;;;;;;;23.57;15.98;;;;;;;2.57;82.03;98730.05;1668763;83;27553;-78
2021/01/24 03:58:13;;;;;;;22.95;16.97;;;;;;;2.58;81.94;98725.09;1698905;83;25808;-78
2021/01/24 04:00:40;;;;;;;25.70;17.67;;;;;;;2.60;82.05;98721.77;1682147;83;25364;-78
2021/01/24 04:03:08;;;;;;;26.80;17.55;;;;;;;2.63;82.08;98728.52;1683108;83;25788;-78
2021/01/24 04:05:35;;;;;;;24.70;17.50;;;;;;;2.63;82.07;98729.84;1675790;83;25902;-78
2021/01/24 04:08:02;;;;;;;24.72;17.32;;;;;;;2.61;82.05;98733.16;1678146;83;28308;-78
2021/01/24 04:10:30;;;;;;;26.97;18.23;;;;;;;2.62;82.08;98731.66;1683312;83;26156;-78
2021/01/24 04:12:57;;;;;;;24.87;17.05;;;;;;;2.61;82.01;98719.42;1649926;83;25841;-78
2021/01/24 04:15:24;;;;;;;34.00;20.25;;;;;;;2.63;82.00;98723.23;1672915;83;25397;-78
2021/01/24 04:17:52;;;;;;;45.65;27.35;;;;;;;2.65;82.07;98730.48;1682309;83;26146;-78
2021/01/24 04:20:19;;;;;;;44.88;27.27;;;;;;;2.67;82.15;98728.47;1673279;83;27549;-78
2021/01/24 04:22:49;;;;;;;45.60;26.77;;;;;;;2.69;82.06;98730.43;1651968;84;26189;-78
2021/01/24 04:25:18;;;;;;;36.85;23.50;;;;;;;2.69;82.01;98729.94;1654857;85;25852;-78
2021/01/24 04:27:46;;;;;;;34.98;21.50;;;;;;;2.68;82.04;98736.70;1661798;84;25911;-78
2021/01/24 04:30:15;;;;;;;37.45;22.65;;;;;;;2.68;82.04;98731.42;1613877;87;26633;-77
2021/01/24 04:32:42;;;;;;;38.10;23.77;;;;;;;2.68;82.08;98732.73;1652377;84;27533;-78
2021/01/24 04:35:11;;;;;;;32.85;22.15;;;;;;;2.67;82.04;98737.23;1648863;84;25871;-78
2021/01/24 04:37:38;;;;;;;36.23;22.93;;;;;;;2.69;82.13;98751.58;1659518;84;25879;-78
2021/01/24 04:40:07;;;;;;;33.80;22.32;;;;;;;2.72;82.21;98751.20;1645727;84;26121;-78
2021/01/24 04:42:34;;;;;;;35.50;23.98;;;;;;;2.73;82.12;98751.53;1666099;84;25930;-78
2021/01/24 04:45:03;;;;;;;40.43;25.92;;;;;;;2.72;82.11;98746.73;1649227;85;27556;-78
2021/01/24 04:47:31;;;;;;;41.30;25.08;;;;;;;2.74;82.09;98742.58;1626508;85;25820;-78
2021/01/24 04:50:00;;;;;;;36.45;24.55;;;;;;;2.72;82.09;98747.23;1622727;85;25614;-78
2021/01/24 04:52:28;;;;;;;35.28;22.17;;;;;;;2.70;82.04;98754.03;1661429;84;26295;-79
2021/01/24 04:54:56;;;;;;;35.03;21.37;;;;;;;2.70;82.06;98765.92;1652137;84;25729;-78
2021/01/24 04:57:24;;;;;;;38.73;24.15;;;;;;;2.71;82.07;98764.11;1633178;84;27375;-78
2021/01/24 04:59:52;;;;;;;54.45;31.27;;;;;;;2.71;82.05;98752.21;1617585;87;25789;-78
2021/01/24 05:02:20;;;;;;;48.38;30.02;;;;;;;2.71;82.05;98754.36;1629426;85;25961;-78
2021/01/24 05:04:47;;;;;;;33.55;22.22;;;;;;;2.70;82.07;98742.13;1647890;85;25811;-78
2021/01/24 05:07:15;;;;;;;34.30;21.42;;;;;;;2.65;81.88;98730.48;1659378;84;25740;-78
2021/01/24 05:09:46;;;;;;;32.30;21.60;;;;;;;2.59;81.91;98731.20;1649337;85;27641;-78
2021/01/24 05:12:14;;;;;;;35.83;22.93;;;;;;;2.55;82.07;98728.09;1662067;84;26460;-78
2021/01/24 05:14:41;;;;;;;36.68;22.65;;;;;;;2.53;82.05;98727.45;1653822;84;26085;-78
2021/01/24 05:17:09;;;;;;;34.78;21.55;;;;;;;2.47;82.12;98722.06;1653894;85;25917;-78
2021/01/24 05:19:38;;;;;;;36.50;22.80;;;;;;;2.45;82.31;98731.50;1646349;85;26525;-78
2021/01/24 05:22:05;;;;;;;45.00;27.15;;;;;;;2.48;82.39;98739.58;1633139;85;27647;-78
2021/01/24 05:24:34;;;;;;;44.30;27.25;;;;;;;2.47;82.37;98738.75;1644013;84;26123;-78
2021/01/24 05:27:14;;;;;;;43.70;25.57;;;;;;;2.46;82.45;98741.05;1638264;85;26467;-78
2021/01/24 05:29:44;;;;;;;44.30;28.57;;;;;;;2.47;82.50;98742.71;1691100;83;25830;-78
2021/01/24 05:32:12;;;;;;;43.35;27.67;;;;;;;2.50;82.49;98730.47;1632601;86;25790;-78
2021/01/24 05:34:43;;;;;;;40.33;26.10;;;;;;;2.51;82.54;98737.38;1647123;85;27566;-78
2021/01/24 05:37:11;;;;;;;35.30;23.30;;;;;;;2.53;82.54;98730.59;1647391;85;26108;-78
2021/01/24 05:39:41;;;;;;;33.85;22.27;;;;;;;2.54;82.48;98733.07;1647902;85;25433;-78
2021/01/24 05:42:11;;;;;;;;;;;;;;;2.51;82.48;98729.45;1651620;85;25822;-78
2021/01/24 05:44:39;;;;;;;35.52;22.58;;;;;;;2.50;82.49;98746.33;1660395;85;25844;-78
2021/01/24 05:47:06;;;;;;;32.78;22.62;;;;;;;2.46;82.58;98737.62;1672120;85;27539;-78
2021/01/24 05:49:34;;;;;;;34.33;22.30;;;;;;;2.45;82.55;98736.79;1614209;85;25878;-79
2021/01/24 05:52:07;;;;;;;35.90;23.65;;;;;;;2.45;82.63;98739.43;1647662;85;25905;-78
2021/01/24 05:54:44;;;;;;;37.35;22.30;;;;;;;2.46;82.60;98736.30;1650566;85;25817;-78
2021/01/24 05:57:13;;;;;;;33.30;22.20;;;;;;;2.47;82.67;98729.50;1649249;85;26247;-78
2021/01/24 06:00:00;;;;;;;31.62;21.48;;;;;;;2.49;82.64;98729.31;1627784;85;27811;-78
2021/01/24 06:02:29;;;;;;;33.98;21.62;;;;;;;2.44;82.43;98721.13;1653132;85;25926;-78
2021/01/24 06:04:57;;;;;;;38.65;23.00;;;;;;;2.38;82.57;98724.46;1664471;85;25879;-78
2021/01/24 06:07:25;;;;;;;30.68;20.17;;;;;;;2.38;82.62;98707.29;1602727;85;26464;-78
2021/01/24 06:09:54;;;;;;;30.85;20.10;;;;;;;2.38;82.61;98698.88;1647629;85;25746;-78
2021/01/24 06:12:24;;;;;;;33.28;20.85;;;;;;;2.33;82.55;98688.05;1647461;85;27146;-78
2021/01/24 06:14:52;;;;;;;32.08;20.17;;;;;;;2.28;82.71;98699.16;1671040;85;25783;-78
2021/01/24 06:17:30;;;;;;;30.57;19.15;;;;;;;2.28;82.88;98709.72;1647163;85;25904;-78
2021/01/24 06:20:00;;;;;;;30.60;18.90;;;;;;;2.30;82.93;98710.84;1628360;85;26427;-78
2021/01/24 06:22:51;;;;;;;34.67;20.05;;;;;;;2.30;82.93;98713.00;1677271;83;25781;-78
2021/01/24 06:25:23;;;;;;;30.43;19.30;;;;;;;2.33;82.99;98711.83;1689169;83;27549;-78
2021/01/24 06:27:59;;;;;;;31.62;19.67;;;;;;;2.35;82.99;98716.42;1668005;83;26024;-78
2021/01/24 06:30:30;;;;;;;29.15;20.02;;;;;;;2.36;82.99;98711.44;1639262;83;25841;-78
2021/01/24 06:33:16;;;;;;;;;;;;;;;2.36;82.97;98712.77;1660054;83;26453;-78
2021/01/24 06:35:52;;;;;;;26.05;17.87;;;;;;;2.37;82.95;98711.78;1657242;83;25838;-78
2021/01/24 06:38:36;;;;;;;30.25;19.32;;;;;;;2.36;82.96;98699.55;1657573;83;27624;-78
2021/01/24 06:41:06;;;;;;;27.27;18.00;;;;;;;2.33;82.87;98698.61;1667487;84;26265;-78
2021/01/24 06:43:48;;;;;;;29.15;18.60;;;;;;;2.28;82.84;98701.80;1673815;84;25797;-78
2021/01/24 06:46:30;;;;;;;28.80;18.15;;;;;;;2.27;82.93;98694.86;1617859;85;25911;-78
2021/01/24 06:48:58;;;;;;;29.77;18.30;;;;;;;2.25;82.94;98699.50;1682721;84;25828;-78
2021/01/24 06:51:43;;;;;;;28.52;18.05;;;;;;;2.26;83.00;98694.55;1654831;84;27513;-77
2021/01/24 06:54:28;;;;;;;27.70;17.00;;;;;;;2.29;83.22;98699.45;1681494;84;26049;-79
2021/01/24 06:57:11;;;;;;;27.45;18.25;;;;;;;2.30;83.09;98698.96;1653781;84;26379;-77
2021/01/24 06:59:39;;;;;;;29.32;17.48;;;;;;;2.29;83.04;98699.95;1632084;84;25882;-77
2021/01/24 07:02:35;;;;;;;27.48;19.07;;;;;;;2.29;83.12;98696.81;1652193;84;25800;-77
2021/01/24 07:05:24;;;;;;;25.95;17.17;;;;;;;2.29;83.03;98702.09;1663114;84;28302;-77
2021/01/24 07:07:53;;;;;;;29.65;18.67;;;;;;;2.30;83.15;98698.96;1654887;84;25955;-78
2021/01/24 07:10:41;;;;;;;29.77;17.35;;;;;;;2.29;83.06;98695.49;1649044;84;25969;-78
2021/01/24 07:13:31;;;;;;;27.70;18.00;;;;;;;2.23;82.95;98683.50;1654599;84;25837;-78
2021/01/24 07:16:07;;;;;;;28.87;18.45;;;;;;;2.16;83.04;98686.04;1685638;84;25894;-77
2021/01/24 07:18:44;;;;;;;28.42;18.30;;;;;;;2.10;83.16;98681.98;1677731;84;28559;-78
2021/01/24 07:21:12;;;;;;;29.10;17.77;;;;;;;2.09;83.36;98679.03;1641807;84;25831;-77
2021/01/24 07:23:40;;;;;;;29.48;17.42;;;;;;;2.08;83.36;98681.34;1660656;84;25984;-77
2021/01/24 07:26:10;;;;;;;29.57;17.07;;;;;;;2.02;83.34;98685.53;1662756;84;25899;-77
2021/01/24 07:28:38;;;;;;;26.73;16.80;;;;;;;2.00;83.47;98676.97;1639210;84;26000;-77
2021/01/24 07:31:06;;;;;;;27.22;17.35;;;;;;;1.98;83.52;98688.70;1642968;85;28525;-77
2021/01/24 07:33:35;;;;;;;27.93;17.62;;;;;;;1.95;83.56;98687.23;1653090;85;26192;-77
2021/01/24 07:36:04;;;;;;;26.57;16.57;;;;;;;1.96;83.70;98694.17;1621637;85;25862;-78
2021/01/24 07:38:32;;;;;;;30.77;18.92;;;;;;;1.99;83.87;98688.52;1628829;85;25861;-77
2021/01/24 07:41:01;;;;;;;29.00;17.40;;;;;;;2.01;83.84;98692.31;1652322;85;26429;-77
2021/01/24 07:43:30;;;;;;;26.75;16.60;;;;;;;2.02;83.80;98692.13;1673878;84;27418;-77
2021/01/24 07:45:58;;;;;;;27.15;16.82;;;;;;;2.02;83.81;98694.77;1661172;84;26129;-77
2021/01/24 07:48:26;;;;;;;29.40;17.02;;;;;;;2.02;83.87;98694.77;1669432;83;25895;-77
2021/01/24 07:50:54;;;;;;;30.75;17.40;;;;;;;2.03;83.90;98688.47;1629283;84;25866;-77
2021/01/24 07:53:22;;;;;;;28.62;16.73;;;;;;;2.02;83.92;98680.73;1668772;83;26154;-77
2021/01/24 07:55:51;;;;;;;24.67;16.55;;;;;;;2.00;83.98;98676.97;1671373;84;28473;-77
2021/01/24 07:58:19;;;;;;;29.45;17.37;;;;;;;2.01;84.01;98670.67;1614596;86;25755;-77
2021/01/24 08:00:47;;;;;;;28.40;17.27;;;;;;;2.00;84.08;98674.33;1641060;84;25987;-78
2021/01/24 08:03:21;;;;;;;27.40;16.65;;;;;;;2.01;84.16;98683.08;1651290;85;25816;-78
2021/01/24 08:05:49;;;;;;;27.48;16.85;;;;;;;1.99;84.13;98677.16;1640660;85;26259;-78
2021/01/24 08:08:17;;;;;;;28.10;17.02;;;;;;;1.99;84.28;98673.20;1641105;85;27772;-78
2021/01/24 08:10:47;;;;;;;29.12;18.42;;;;;;;2.01;84.32;98675.16;1649030;85;25872;-78
2021/01/24 08:13:15;;;;;;;28.20;16.35;;;;;;;2.02;84.32;98668.86;1630359;84;25811;-77
2021/01/24 08:15:43;;;;;;;26.70;16.15;;;;;;;2.03;84.49;98671.83;1653101;84;25877;-78
2021/01/24 08:18:10;;;;;;;28.45;16.80;;;;;;;2.02;84.53;98667.53;1636737;85;25795;-78
2021/01/24 08:20:38;;;;;;;32.25;18.65;;;;;;;2.01;84.54;98665.39;1633953;85;28683;-77
2021/01/24 08:23:06;;;;;;;26.62;17.35;;;;;;;2.03;84.66;98668.67;1655373;84;25859;-78
2021/01/24 08:25:33;;;;;;;28.70;17.80;;;;;;;2.03;84.61;98658.63;1642123;84;25847;-77
2021/01/24 08:28:01;;;;;;;27.67;17.82;;;;;;;2.00;84.70;98661.13;1653170;83;26490;-77
2021/01/24 08:30:29;;;;;;;29.98;18.40;;;;;;;1.99;84.81;98654.19;1628308;83;25826;-77
2021/01/24 08:32:57;;;;;;;30.08;17.42;;;;;;;2.03;85.01;98648.87;1617858;84;27707;-77
2021/01/24 08:35:30;;;;;;;27.77;16.57;;;;;;;2.04;84.96;98643.09;1651451;84;25877;-78
2021/01/24 08:37:59;;;;;;;26.17;16.82;;;;;;;2.02;84.97;98634.53;1643805;84;25884;-78
2021/01/24 08:40:35;;;;;;;24.35;15.70;;;;;;;2.02;85.13;98631.40;1617705;84;25794;-77
2021/01/24 08:43:05;;;;;;;24.67;15.23;;;;;;;2.00;85.03;98625.97;1626276;84;25856;-77
2021/01/24 08:45:35;;;;;;;23.75;14.23;;;;;;;1.94;85.17;98636.77;1626683;83;27365;-78
2021/01/24 08:48:05;;;;;;;27.05;17.00;;;;;;;1.90;85.30;98635.98;1653133;84;26124;-77
2021/01/24 08:50:37;;;;;;;27.30;16.87;;;;;;;1.88;85.33;98636.66;1628062;84;25858;-77
2021/01/24 08:53:07;;;;;;;25.05;16.07;;;;;;;1.89;85.38;98631.69;1669960;84;26494;-77
2021/01/24 08:55:49;;;;;;;27.85;16.67;;;;;;;1.90;85.38;98628.06;1646092;84;25807;-77
2021/01/24 08:58:28;;;;;;;25.32;15.60;;;;;;;1.92;85.49;98626.89;1644119;84;27616;-77
2021/01/24 09:01:09;;;;;;;26.37;16.02;;;;;;;1.97;85.64;98625.00;1628408;84;26047;-77
2021/01/24 09:03:45;;;;;;;26.42;16.12;;;;;;;2.06;85.43;98625.25;1831135;77;25681;-77
2021/01/24 09:06:19;;;;;;;24.02;15.68;;;;;;;2.02;85.53;98627.44;1742619;79;25795;-78
2021/01/24 09:08:52;;;;;;;25.65;15.85;;;;;;;2.02;85.43;98614.23;1761912;78;27466;-77
2021/01/24 09:11:20;;;;;;;27.82;16.75;;;;;;;2.02;85.42;98614.23;1763550;78;25760;-78
2021/01/24 09:13:50;;;;;;;24.87;15.83;;;;;;;2.03;85.48;98616.38;1706036;81;25786;-78
2021/01/24 09:16:22;;;;;;;25.37;16.15;;;;;;;2.03;85.44;98611.10;1726741;81;25850;-78
2021/01/24 09:18:49;;;;;;;29.57;17.77;;;;;;;2.00;85.38;98616.23;1687868;83;25952;-78
2021/01/24 09:21:17;;;;;;;29.23;18.62;;;;;;;1.99;85.39;98611.95;1729315;81;28622;-77
2021/01/24 09:23:47;;;;;;;30.72;18.12;;;;;;;2.01;85.47;98611.27;1697907;83;26142;-78
2021/01/24 09:26:15;;;;;;;29.12;17.95;;;;;;;2.00;85.50;98613.59;1739653;80;25785;-78
2021/01/24 09:28:42;;;;;;;31.87;19.77;;;;;;;1.95;85.48;98611.16;1725024;81;25666;-78
2021/01/24 09:31:10;;;;;;;32.00;18.55;;;;;;;1.94;85.50;98611.69;1755146;80;25748;-77
2021/01/24 09:33:37;;;;;;;32.53;18.73;;;;;;;1.95;85.57;98617.27;1709106;81;27546;-78
2021/01/24 09:36:06;;;;;;;33.25;19.25;;;;;;;1.97;85.60;98615.76;1706451;81;26516;-77
2021/01/24 09:38:34;;;;;;;32.73;20.20;;;;;;;2.00;85.63;98616.23;1730412;81;25838;-77
2021/01/24 09:41:01;;;;;;;35.68;20.75;;;;;;;2.05;85.60;98611.73;1748694;81;25824;-78
2021/01/24 09:43:29;;;;;;;35.65;21.35;;;;;;;2.10;85.55;98604.08;1680793;81;26094;-77
2021/01/24 09:45:56;;;;;;;33.02;21.07;;;;;;;2.11;85.40;98599.95;1727582;81;27646;-77
2021/01/24 09:48:24;;;;;;;31.10;18.85;;;;;;;2.12;85.26;98603.39;1738279;80;26020;-77
2021/01/24 09:50:52;;;;;;;34.55;19.37;;;;;;;2.11;85.22;98603.09;1719941;81;26346;-78
2021/01/24 09:53:22;;;;;;;32.53;19.80;;;;;;;2.12;85.15;98602.90;1687950;81;25863;-76
2021/01/24 09:55:49;;;;;;;29.95;18.82;;;;;;;2.10;85.12;98595.66;1693888;81;25882;-77
2021/01/24 09:58:18;;;;;;;33.58;19.70;;;;;;;2.09;85.07;98591.89;1723721;81;27413;-77
2021/01/24 10:00:46;;;;;;;33.80;20.00;;;;;;;2.04;85.05;98585.00;1752655;81;25857;-78
2021/01/24 10:03:16;;;;;;;33.78;19.45;;;;;;;2.00;85.04;98588.52;1723222;80;25930;-77
2021/01/24 10:05:44;;;;;;;32.53;19.25;;;;;;;1.97;85.15;98588.86;1741943;80;26480;-77
2021/01/24 10:08:12;;;;;;;37.45;20.57;;;;;;;2.02;85.28;98589.16;1718941;81;25902;-77
2021/01/24 10:10:40;;;;;;;33.98;20.45;;;;;;;2.05;85.19;98587.45;1717598;81;27579;-77
2021/01/24 10:13:08;;;;;;;35.40;20.62;;;;;;;2.08;85.09;98591.06;1701544;81;25895;-77
2021/01/24 10:15:35;;;;;;;32.33;20.88;;;;;;;2.09;85.04;98587.44;1727125;81;25707;-78
2021/01/24 10:18:03;;;;;;;34.67;20.02;;;;;;;2.09;84.97;98582.64;1749773;81;25593;-78
2021/01/24 10:20:31;;;;;;;35.00;21.00;;;;;;;2.09;84.95;98590.57;1729412;81;25842;-78
2021/01/24 10:22:58;;;;;;;36.50;21.85;;;;;;;2.09;85.00;98585.28;1717170;80;27544;-78
2021/01/24 10:25:26;;;;;;;38.05;21.60;;;;;;;2.12;84.96;98583.58;1719878;81;26246;-78
2021/01/24 10:27:53;;;;;;;34.85;21.93;;;;;;;2.13;84.81;98577.31;1735316;80;25886;-78
2021/01/24 10:30:21;;;;;;;38.60;21.97;;;;;;;2.14;84.81;98566.56;1722764;81;26033;-78
2021/01/24 10:32:49;;;;;;;35.58;21.48;;;;;;;2.15;84.80;98571.34;1678895;81;25878;-78
2021/01/24 10:35:16;;;;;;;34.13;19.80;;;;;;;2.15;84.71;98563.42;1741059;80;28496;-78
2021/01/24 10:37:44;;;;;;;34.10;20.32;;;;;;;2.12;84.65;98561.97;1723419;81;26396;-78
2021/01/24 10:40:14;;;;;;;35.50;21.42;;;;;;;2.08;84.58;98565.15;1737499;81;25739;-78
2021/01/24 10:42:42;;;;;;;32.38;19.57;;;;;;;2.03;84.69;98548.53;1714885;81;25772;-78
2021/01/24 10:45:12;;;;;;;32.83;20.43;;;;;;;1.97;84.66;98544.48;1682869;81;26134;-78
2021/01/24 10:47:40;;;;;;;32.98;20.15;;;;;;;1.90;84.73;98540.45;1721297;81;27573;-77
2021/01/24 10:50:10;;;;;;;35.92;22.25;;;;;;;1.84;84.89;98541.16;1731135;81;26106;-77
2021/01/24 10:52:37;;;;;;;42.13;22.85;;;;;;;1.82;85.04;98540.52;1696378;81;25813;-77
2021/01/24 10:55:09;;;;;;;37.38;22.15;;;;;;;1.80;85.08;98537.23;1740044;80;25830;-77
2021/01/24 10:57:38;;;;;;;39.15;23.55;;;;;;;1.81;85.14;98539.39;1698192;81;25842;-77
2021/01/24 11:00:08;;;;;;;36.53;22.77;;;;;;;1.77;85.16;98538.94;1751216;81;27529;-77
2021/01/24 11:02:36;;;;;;;36.08;21.70;;;;;;;1.76;85.27;98540.42;1700491;81;25858;-77
2021/01/24 11:05:07;;;;;;;38.10;23.05;;;;;;;1.77;85.29;98539.43;1699242;82;25791;-77
2021/01/24 11:07:37;;;;;;;37.25;21.25;;;;;;;1.77;85.33;98537.63;1696610;82;26422;-76
2021/01/24 11:10:09;;;;;;;39.42;23.67;;;;;;;1.76;85.36;98541.25;1712776;82;25788;-77
2021/01/24 11:12:37;;;;;;;43.02;25.08;;;;;;;1.79;85.41;98540.07;1696232;82;29019;-77
2021/01/24 11:15:07;;;;;;;37.03;20.85;;;;;;;1.80;85.40;98533.77;1712951;82;25830;-77
2021/01/24 11:17:34;;;;;;;41.65;23.38;;;;;;;1.79;85.42;98526.38;1738640;81;26402;-77
2021/01/24 11:20:02;;;;;;;39.70;22.55;;;;;;;1.80;85.46;98533.28;1747822;81;25796;-77
2021/01/24 11:22:30;;;;;;;43.08;25.12;;;;;;;1.83;85.58;98538.70;1673296;82;25783;-77
2021/01/24 11:24:57;;;;;;;44.03;22.95;;;;;;;1.88;85.70;98537.67;1729871;81;27561;-77
2021/01/24 11:27:25;;;;;;;39.23;22.82;;;;;;;1.95;85.59;98535.92;1721749;82;25803;-77
2021/01/24 11:29:52;;;;;;;44.58;24.10;;;;;;;1.93;85.42;98533.47;1722397;82;25686;-76
2021/01/24 11:32:23;;;;;;;41.73;23.77;;;;;;;1.97;85.50;98534.73;1703151;82;25849;-77
2021/01/24 11:34:51;;;;;;;42.27;25.45;;;;;;;1.95;85.28;98541.20;1730420;81;25800;-76
2021/01/24 11:37:19;;;;;;;52.13;29.25;;;;;;;1.95;85.35;98545.98;1695308;82;27334;-77
2021/01/24 11:39:46;;;;;;;89.25;48.28;;;;;;;1.96;85.27;98558.70;1751171;81;25810;-77